Terminal Aerodrome Forecast
Issued by NWS North Platte, NE

Home | Current Version | Previous Version | Text Only | Print | Product List | Glossary On
Versions: 1 2 3 4 5 6 7 8 9 10 11 12 13
000
FTUS43 KLBF 231438 AAA
TAFVTN
TAF AMD
KVTN 231438Z 2315/2412 20013KT P6SM SCT250
     FM231600 26015G22KT P6SM SKC
     FM231900 30011G18KT P6SM SKC
     FM232100 34015G22KT P6SM SCT200
     FM240100 35010KT P6SM SCT200
     FM240300 31005KT P6SM SCT200=

USA.gov is the U.S. government's official web portal to all federal, state and local government web resources and services.